createdAt,value
2019-04-20T00:02:19.357Z,86.50
2019-04-20T00:04:47.673Z,86.50
2019-04-20T00:07:21.901Z,86.40
2019-04-20T00:09:55.355Z,86.30
2019-04-20T00:12:25.002Z,86.50
2019-04-20T00:14:48.037Z,86.30
2019-04-20T00:17:17.863Z,87.00
2019-04-20T00:19:50.621Z,86.30
2019-04-20T00:22:42.095Z,85.90
2019-04-20T00:25:18.651Z,85.70
2019-04-20T00:28:19.863Z,85.70
2019-04-20T00:30:52.034Z,85.60
2019-04-20T00:33:14.889Z,85.50
2019-04-20T00:35:33.861Z,85.40
2019-04-20T00:38:03.368Z,85.20
2019-04-20T00:40:32.684Z,85.30
2019-04-20T00:43:01.938Z,85.20
2019-04-20T00:45:34.767Z,84.90
2019-04-20T00:48:06.795Z,84.60
2019-04-20T00:50:44.452Z,84.60
2019-04-20T00:53:13.349Z,84.30
2019-04-20T00:55:33.815Z,84.10
2019-04-20T00:58:11.802Z,83.90
2019-04-20T01:01:02.764Z,83.70
2019-04-20T01:03:23.251Z,83.40
2019-04-20T01:05:59.644Z,83.10
2019-04-20T01:08:23.628Z,82.80
2019-04-20T01:10:55.728Z,82.10
2019-04-20T01:13:23.913Z,82.00
2019-04-20T01:15:58.787Z,81.50
2019-04-20T01:18:23.449Z,81.70
2019-04-20T01:20:52.121Z,81.60
2019-04-20T01:23:22.907Z,81.70
2019-04-20T01:25:56.821Z,81.90
2019-04-20T01:28:37.546Z,81.70
2019-04-20T01:31:06.459Z,81.50
2019-04-20T01:33:35.083Z,81.50
2019-04-20T01:36:09.032Z,81.50
2019-04-20T01:38:40.060Z,81.50
2019-04-20T01:40:53.134Z,81.40
2019-04-20T01:43:22.650Z,81.60
2019-04-20T01:45:56.753Z,81.50
2019-04-20T01:48:27.445Z,81.30
2019-04-20T01:50:59.666Z,81.20
2019-04-20T01:53:55.506Z,81.10
2019-04-20T01:56:18.330Z,81.00
2019-04-20T01:59:02.604Z,81.10
2019-04-20T02:01:31.068Z,81.20
2019-04-20T02:04:02.787Z,81.20
2019-04-20T02:06:39.980Z,81.50
2019-04-20T02:09:06.422Z,81.90
2019-04-20T02:11:36.553Z,82.10
2019-04-20T02:14:05.753Z,82.10
2019-04-20T02:16:39.212Z,82.50
2019-04-20T02:19:18.668Z,82.70
2019-04-20T02:21:47.779Z,83.00
2019-04-20T02:24:06.389Z,83.40
2019-04-20T02:26:34.717Z,83.70
2019-04-20T02:29:30.651Z,83.90
2019-04-20T02:32:15.810Z,84.00
2019-04-20T02:34:39.164Z,84.20
2019-04-20T02:37:13.858Z,84.30
2019-04-20T02:39:45.531Z,84.50
2019-04-20T02:47:16.549Z,85.10
2019-04-20T02:49:42.029Z,85.30
2019-04-20T02:52:13.565Z,85.60
2019-04-20T02:54:36.825Z,85.70
2019-04-20T02:57:21.775Z,85.90
2019-04-20T03:01:59.107Z,86.20
2019-04-20T03:04:27.113Z,86.40
2019-04-20T03:07:01.868Z,86.70
2019-04-20T03:09:40.395Z,87.00
2019-04-20T03:12:10.853Z,87.10
2019-04-20T03:14:30.475Z,87.20
2019-04-20T03:17:10.410Z,87.30
2019-04-20T03:19:28.902Z,87.60
2019-04-20T03:22:09.170Z,87.60
2019-04-20T03:24:43.928Z,87.70
2019-04-20T03:27:07.461Z,88.10
2019-04-20T03:29:52.330Z,88.00
2019-04-20T03:32:58.066Z,88.30
2019-04-20T03:35:10.067Z,88.50
2019-04-20T03:37:30.581Z,88.60
2019-04-20T03:39:55.237Z,88.80
2019-04-20T03:42:09.313Z,88.90
2019-04-20T03:44:39.416Z,89.20
2019-04-20T03:47:13.673Z,89.30
2019-04-20T03:50:03.369Z,89.20
2019-04-20T03:52:32.075Z,89.30
2019-04-20T03:55:16.109Z,89.40
2019-04-20T03:57:51.671Z,89.50
2019-04-20T04:00:21.880Z,89.60
2019-04-20T04:03:10.946Z,89.40
2019-04-20T04:05:27.518Z,89.40
2019-04-20T04:07:46.775Z,89.40
2019-04-20T04:10:25.916Z,89.30
2019-04-20T04:13:11.792Z,89.20
2019-04-20T04:15:48.353Z,89.10
2019-04-20T04:18:21.963Z,89.00
2019-04-20T04:20:52.040Z,88.80
2019-04-20T04:23:33.652Z,88.70
2019-04-20T04:26:05.830Z,88.70
2019-04-20T04:28:35.228Z,88.50
2019-04-20T04:31:09.014Z,88.20
2019-04-20T04:36:01.079Z,88.00
2019-04-20T04:38:46.051Z,87.90
2019-04-20T04:41:16.735Z,87.70
2019-04-20T04:43:37.281Z,87.50
2019-04-20T04:45:48.935Z,87.00
2019-04-20T04:48:23.787Z,86.80
2019-04-20T04:50:56.103Z,86.40
2019-04-20T04:53:30.286Z,86.40
2019-04-20T04:55:57.734Z,86.10
2019-04-20T04:58:19.496Z,85.90
2019-04-20T05:00:49.364Z,85.50
2019-04-20T05:03:35.324Z,85.40
2019-04-20T05:06:06.606Z,84.80
2019-04-20T05:08:30.714Z,84.60
2019-04-20T05:10:52.070Z,84.90
2019-04-20T05:13:21.825Z,85.20
2019-04-20T05:16:06.555Z,85.20
2019-04-20T05:18:44.760Z,84.90
2019-04-20T05:21:10.167Z,84.60
2019-04-20T05:23:37.800Z,84.20
2019-04-20T05:26:19.710Z,84.10
2019-04-20T05:28:48.388Z,83.70
2019-04-20T05:31:10.278Z,83.20
2019-04-20T05:34:04.139Z,83.30
2019-04-20T05:36:28.063Z,82.80
2019-04-20T05:39:03.361Z,82.20
2019-04-20T05:41:26.824Z,82.10
2019-04-20T05:43:56.555Z,82.80
2019-04-20T05:46:32.351Z,83.40
2019-04-20T05:49:04.542Z,83.80
2019-04-20T05:51:35.077Z,84.10
2019-04-20T05:54:02.669Z,83.50
2019-04-20T05:56:37.299Z,83.30
2019-04-20T05:58:59.577Z,83.20
2019-04-20T06:01:42.370Z,83.00
2019-04-20T06:04:02.532Z,82.50
2019-04-20T06:06:43.343Z,81.40
2019-04-20T06:09:12.515Z,80.90
2019-04-20T06:11:44.466Z,79.90
2019-04-20T06:14:07.045Z,80.20
2019-04-20T06:16:55.744Z,80.10
2019-04-20T06:22:03.418Z,77.50
2019-04-20T06:24:39.911Z,76.20
2019-04-20T06:27:17.969Z,76.70
2019-04-20T06:29:31.010Z,77.20
2019-04-20T06:32:05.090Z,77.00
2019-04-20T06:34:42.537Z,76.10
2019-04-20T06:37:21.469Z,74.90
2019-04-20T06:42:09.874Z,73.20
2019-04-20T06:44:34.305Z,74.60
2019-04-20T06:49:54.834Z,74.10
2019-04-20T06:52:23.682Z,72.60
2019-04-20T06:54:58.125Z,71.30
2019-04-20T06:57:34.654Z,69.40
2019-04-20T07:00:10.326Z,69.30
2019-04-20T07:02:38.662Z,69.40
2019-04-20T07:05:08.491Z,69.20
2019-04-20T07:07:35.496Z,69.40
2019-04-20T07:12:32.991Z,69.40
2019-04-20T07:14:55.547Z,69.70
2019-04-20T07:17:50.075Z,70.10
2019-04-20T07:20:15.457Z,71.70
2019-04-20T07:22:51.041Z,72.10
2019-04-20T07:25:23.157Z,71.50
2019-04-20T07:27:54.019Z,72.00
2019-04-20T07:30:16.498Z,72.90
2019-04-20T07:35:24.825Z,71.90
2019-04-20T07:42:55.168Z,72.60
2019-04-20T07:48:01.661Z,71.40
2019-04-20T07:50:21.488Z,72.10
2019-04-20T07:52:46.345Z,73.60
2019-04-20T07:57:55.238Z,73.20
2019-04-20T08:00:39.304Z,73.10
2019-04-20T08:03:12.829Z,71.50
2019-04-20T08:05:31.246Z,72.30
2019-04-20T08:07:57.238Z,72.20
2019-04-20T08:10:33.787Z,71.20
2019-04-20T08:18:08.928Z,71.60
2019-04-20T08:20:43.112Z,71.10
2019-04-20T08:23:12.920Z,71.80
2019-04-20T08:25:30.592Z,71.80
2019-04-20T08:28:01.476Z,71.20
2019-04-20T08:30:53.761Z,72.30
2019-04-20T08:33:33.585Z,72.30
2019-04-20T08:36:09.287Z,73.90
2019-04-20T08:39:05.831Z,72.90
2019-04-20T08:41:02.843Z,73.40
2019-04-20T08:43:46.832Z,73.40
2019-04-20T08:46:06.626Z,72.00
2019-04-20T08:48:34.819Z,72.40
2019-04-20T08:51:09.018Z,73.10
2019-04-20T08:53:36.871Z,72.90
2019-04-20T08:55:59.997Z,72.50
2019-04-20T08:58:18.046Z,73.00
2019-04-20T09:00:53.599Z,72.60
2019-04-20T09:03:21.959Z,70.50
2019-04-20T09:05:58.963Z,69.30
2019-04-20T09:08:26.278Z,69.80
2019-04-20T09:11:05.868Z,69.70
2019-04-20T09:13:26.927Z,71.30
2019-04-20T09:15:49.708Z,70.50
2019-04-20T09:18:28.367Z,70.90
2019-04-20T09:21:00.398Z,70.80
2019-04-20T09:23:38.066Z,69.00
2019-04-20T09:28:38.377Z,69.20
2019-04-20T09:31:20.188Z,69.90
2019-04-20T09:34:04.644Z,68.80
2019-04-20T09:36:46.145Z,69.50
2019-04-20T09:39:18.992Z,70.80
2019-04-20T09:41:59.153Z,71.10
2019-04-20T09:44:15.528Z,72.40
2019-04-20T09:46:49.811Z,71.60
2019-04-20T09:49:23.655Z,72.40
2019-04-20T09:52:03.870Z,72.40
2019-04-20T09:54:31.073Z,72.40
2019-04-20T09:57:03.274Z,72.40
2019-04-20T09:59:35.761Z,72.70
2019-04-20T10:01:55.547Z,71.10
2019-04-20T10:04:17.521Z,70.80
2019-04-20T10:06:47.551Z,71.50
2019-04-20T10:09:22.390Z,70.60
2019-04-20T10:11:47.526Z,69.70
2019-04-20T10:14:16.973Z,69.80
2019-04-20T10:16:45.619Z,69.80
2019-04-20T10:19:20.663Z,68.10
2019-04-20T10:21:45.710Z,68.50
2019-04-20T10:24:14.646Z,69.20
2019-04-20T10:26:44.841Z,69.10
2019-04-20T10:29:13.680Z,69.50
2019-04-20T10:31:48.949Z,69.90
2019-04-20T10:34:13.549Z,71.90
2019-04-20T10:36:47.897Z,71.40
2019-04-20T10:39:18.483Z,72.30
2019-04-20T10:41:52.624Z,72.80
2019-04-20T10:44:18.648Z,72.80
2019-04-20T10:46:47.459Z,72.10
2019-04-20T10:49:17.400Z,71.80
2019-04-20T10:51:47.593Z,72.80
2019-04-20T10:54:16.453Z,72.70
2019-04-20T10:56:45.758Z,72.50
2019-04-20T10:59:15.906Z,72.80
2019-04-20T11:01:45.670Z,72.00
2019-04-20T11:04:14.774Z,70.60
2019-04-20T11:06:44.722Z,71.60
2019-04-20T11:09:14.349Z,71.60
2019-04-20T11:11:44.123Z,72.60
2019-04-20T11:14:22.357Z,72.30
2019-04-20T11:16:44.395Z,71.80
2019-04-20T11:19:13.530Z,71.70
2019-04-20T11:21:42.307Z,71.70
2019-04-20T11:24:12.242Z,70.40
2019-04-20T11:26:42.294Z,70.70
2019-04-20T11:29:11.388Z,69.60
2019-04-20T11:31:46.404Z,68.80
2019-04-20T11:34:10.499Z,67.50
2019-04-20T11:36:39.455Z,67.20
2019-04-20T11:39:11.247Z,66.70
2019-04-20T11:41:41.351Z,67.30
2019-04-20T11:44:11.584Z,66.90
2019-04-20T11:46:40.714Z,67.30
2019-04-20T11:49:09.805Z,67.40
2019-04-20T11:51:39.408Z,66.90
2019-04-20T11:54:08.371Z,67.40
2019-04-20T11:56:40.735Z,68.40
2019-04-20T11:59:07.543Z,68.80
2019-04-20T12:01:50.156Z,68.70
2019-04-20T12:04:26.110Z,68.50
2019-04-20T12:06:46.901Z,67.40
2019-04-20T12:09:16.949Z,67.40
2019-04-20T12:11:59.356Z,67.60
2019-04-20T12:14:16.648Z,67.30
2019-04-20T12:16:45.828Z,66.60
2019-04-20T12:19:14.733Z,66.40
2019-04-20T12:21:43.496Z,66.10
2019-04-20T12:24:12.291Z,66.20
2019-04-20T12:26:40.971Z,66.50
2019-04-20T12:29:09.976Z,65.70
2019-04-20T12:31:39.777Z,65.80
2019-04-20T12:34:08.675Z,66.40
2019-04-20T12:36:37.421Z,65.80
2019-04-20T12:39:08.908Z,65.50
2019-04-20T12:41:45.057Z,65.10
2019-04-20T12:44:08.089Z,65.20
2019-04-20T12:46:38.110Z,64.90
2019-04-20T12:49:07.656Z,64.80
2019-04-20T12:51:47.433Z,65.60
2019-04-20T12:54:06.835Z,66.00
2019-04-20T12:56:35.564Z,65.70
2019-04-20T12:59:05.497Z,65.80
2019-04-20T13:01:35.438Z,65.60
2019-04-20T13:04:07.361Z,66.30
2019-04-20T13:06:37.329Z,66.00
2019-04-20T13:09:10.552Z,65.80
2019-04-20T13:11:50.569Z,65.50
2019-04-20T13:14:38.094Z,65.10
2019-04-20T13:17:08.248Z,65.90
2019-04-20T13:19:37.405Z,66.10
2019-04-20T13:22:07.344Z,65.70
2019-04-20T13:24:36.982Z,65.50
2019-04-20T13:27:06.954Z,65.10
2019-04-20T13:29:38.628Z,65.70
2019-04-20T13:32:07.701Z,65.80
2019-04-20T13:34:36.499Z,65.70
2019-04-20T13:37:06.389Z,65.60
2019-04-20T13:39:35.197Z,65.90
2019-04-20T13:42:13.409Z,65.70
2019-04-20T13:44:34.929Z,65.60
2019-04-20T13:47:05.118Z,65.20
2019-04-20T13:49:33.792Z,65.20
2019-04-20T13:52:02.613Z,65.80
2019-04-20T13:54:31.757Z,65.80
2019-04-20T13:57:02.196Z,65.70
2019-04-20T13:59:41.934Z,66.00
2019-04-20T14:02:20.968Z,66.20
2019-04-20T14:04:54.970Z,65.60
2019-04-20T14:07:24.468Z,65.70
2019-04-20T14:09:53.534Z,66.70
2019-04-20T14:12:29.958Z,66.40
2019-04-20T14:14:53.167Z,66.20
2019-04-20T14:17:23.298Z,65.80
2019-04-20T14:19:53.025Z,65.80
2019-04-20T14:22:22.959Z,65.80
2019-04-20T14:24:53.108Z,66.10
2019-04-20T14:27:21.929Z,65.80
2019-04-20T14:29:50.948Z,64.70
2019-04-20T14:32:20.848Z,64.40
2019-04-20T14:34:51.204Z,64.20
2019-04-20T14:37:20.700Z,64.40
2019-04-20T14:39:50.271Z,63.10
2019-04-20T14:42:33.117Z,62.90
2019-04-20T14:44:50.085Z,63.20
2019-04-20T14:47:19.282Z,63.60
2019-04-20T14:49:48.596Z,62.70
2019-04-20T14:52:17.619Z,63.30
2019-04-20T14:54:47.589Z,63.30
2019-04-20T14:57:17.317Z,63.20
2019-04-20T14:59:53.819Z,63.10
2019-04-20T15:02:22.980Z,63.50
2019-04-20T15:04:52.756Z,64.30
2019-04-20T15:07:22.608Z,64.50
2019-04-20T15:09:51.442Z,64.10
2019-04-20T15:12:21.399Z,64.20
2019-04-20T15:14:50.418Z,64.50
2019-04-20T15:17:23.606Z,65.00
2019-04-20T15:20:03.503Z,65.30
2019-04-20T15:22:36.865Z,65.20
2019-04-20T15:25:07.638Z,65.50
2019-04-20T15:27:37.381Z,65.50
2019-04-20T15:30:08.599Z,65.20
2019-04-20T15:32:38.858Z,65.20
2019-04-20T15:35:09.049Z,65.60
2019-04-20T15:37:37.865Z,65.80
2019-04-20T15:40:06.682Z,65.80
2019-04-20T15:42:47.868Z,66.70
2019-04-20T15:45:07.424Z,66.20
2019-04-20T15:47:36.174Z,66.70
2019-04-20T15:50:07.694Z,67.10
2019-04-20T15:52:40.439Z,67.00
2019-04-20T15:55:17.027Z,66.90
2019-04-20T15:57:38.660Z,67.40
2019-04-20T16:00:08.767Z,67.40
2019-04-20T16:02:45.299Z,67.00
2019-04-20T16:05:16.549Z,67.40
2019-04-20T16:07:52.540Z,66.80
2019-04-20T16:10:17.012Z,66.80
2019-04-20T16:12:46.909Z,67.20
2019-04-20T16:15:15.801Z,66.70
2019-04-20T16:17:47.771Z,67.30
2019-04-20T16:20:19.435Z,66.70
2019-04-20T16:22:45.140Z,66.60
2019-04-20T16:25:15.614Z,66.70
2019-04-20T16:27:45.647Z,68.30
2019-04-20T16:30:15.726Z,67.30
2019-04-20T16:32:44.863Z,67.40
2019-04-20T16:35:14.145Z,67.30
2019-04-20T16:37:44.320Z,67.70
2019-04-20T16:40:13.833Z,67.40
2019-04-20T16:42:44.321Z,67.60
2019-04-20T16:45:12.915Z,68.20
2019-04-20T16:47:42.133Z,68.30
2019-04-20T16:50:11.113Z,67.30
2019-04-20T16:52:40.978Z,68.50
2019-04-20T16:55:11.261Z,68.90
2019-04-20T16:57:40.018Z,68.90
2019-04-20T17:00:09.503Z,68.80
2019-04-20T17:02:38.318Z,69.00
2019-04-20T17:05:07.303Z,69.20
2019-04-20T17:07:37.623Z,69.80
2019-04-20T17:10:09.688Z,69.80
2019-04-20T17:12:39.789Z,70.10
2019-04-20T17:15:09.832Z,70.70
2019-04-20T17:17:39.817Z,69.70
2019-04-20T17:20:11.441Z,70.10
2019-04-20T17:22:40.370Z,70.10
2019-04-20T17:25:10.150Z,70.40
2019-04-20T17:27:53.072Z,70.30
2019-04-20T17:30:26.723Z,70.90
2019-04-20T17:33:11.376Z,70.50
2019-04-20T17:35:52.564Z,70.70
2019-04-20T17:38:10.859Z,71.20
2019-04-20T17:40:58.737Z,71.00
2019-04-20T17:43:19.848Z,71.30
2019-04-20T17:45:51.458Z,71.60
2019-04-20T17:48:23.353Z,71.60
2019-04-20T17:51:04.780Z,72.10
2019-04-20T17:53:27.813Z,71.90
2019-04-20T17:55:47.968Z,71.70
2019-04-20T17:58:20.734Z,71.90
2019-04-20T18:01:03.639Z,72.30
2019-04-20T18:04:29.637Z,73.10
2019-04-20T18:06:27.753Z,72.80
2019-04-20T18:08:54.756Z,73.40
2019-04-20T18:11:16.789Z,73.20
2019-04-20T18:13:45.017Z,73.50
2019-04-20T18:16:43.837Z,73.20
2019-04-20T18:19:13.896Z,73.30
2019-04-20T18:21:51.810Z,73.90
2019-04-20T18:24:43.605Z,75.00
2019-04-20T18:27:06.836Z,75.90
2019-04-20T18:29:42.619Z,76.60
2019-04-20T18:32:11.372Z,76.70
2019-04-20T18:34:51.336Z,76.70
2019-04-20T18:37:18.355Z,76.90
2019-04-20T18:39:55.810Z,77.00
2019-04-20T18:42:24.032Z,77.20
2019-04-20T18:45:04.151Z,77.60
2019-04-20T18:47:33.542Z,77.80
2019-04-20T18:49:55.201Z,78.30
2019-04-20T18:52:17.800Z,78.90
2019-04-20T18:54:49.729Z,79.10
2019-04-20T18:57:21.533Z,79.40
2019-04-20T18:59:52.472Z,79.60
2019-04-20T19:02:23.822Z,80.10
2019-04-20T19:09:46.427Z,80.30
2019-04-20T19:12:16.568Z,80.70
2019-04-20T19:14:51.319Z,80.40
2019-04-20T19:17:45.177Z,80.60
2019-04-20T19:20:04.091Z,80.70
2019-04-20T19:22:35.488Z,80.80
2019-04-20T19:25:03.526Z,81.10
2019-04-20T19:27:39.993Z,81.20
2019-04-20T19:30:14.947Z,81.50
2019-04-20T19:32:45.335Z,81.60
2019-04-20T19:35:14.500Z,81.80
2019-04-20T19:37:47.100Z,82.10
2019-04-20T19:40:15.870Z,82.30
2019-04-20T19:42:47.752Z,82.80
2019-04-20T19:45:31.749Z,83.30
2019-04-20T19:47:54.782Z,83.90
2019-04-20T20:10:10.584Z,84.30
2019-04-20T20:12:40.849Z,85.20
2019-04-20T20:15:14.268Z,85.90
2019-04-20T20:18:03.608Z,86.30
2019-04-20T20:20:30.360Z,86.30
2019-04-20T20:22:45.435Z,86.40
2019-04-20T20:25:11.004Z,86.50
2019-04-20T20:27:49.143Z,86.90
2019-04-20T20:30:18.575Z,86.70
2019-04-20T20:32:55.103Z,86.60
2019-04-20T20:35:17.867Z,86.70
2019-04-20T20:37:48.031Z,86.70
2019-04-20T20:40:18.954Z,87.00
2019-04-20T20:42:52.591Z,87.40
2019-04-20T20:45:25.230Z,87.60
2019-04-20T20:48:06.225Z,87.50
2019-04-20T20:50:36.481Z,87.90
2019-04-20T20:52:59.830Z,88.40
2019-04-20T20:55:28.488Z,88.70
2019-04-20T20:57:56.329Z,88.80
2019-04-20T21:00:32.031Z,89.30
2019-04-20T21:02:56.207Z,89.40
2019-04-20T21:05:17.699Z,89.10
2019-04-20T21:07:48.381Z,89.10
2019-04-20T21:10:25.695Z,89.20
2019-04-20T21:12:53.796Z,89.60
2019-04-20T21:15:22.472Z,89.90
2019-04-20T21:18:08.445Z,90.10
2019-04-20T21:32:59.041Z,90.20
2019-04-20T21:35:24.071Z,90.70
2019-04-20T21:38:00.412Z,90.90
2019-04-20T21:40:30.148Z,90.90
2019-04-20T21:42:59.186Z,91.00
2019-04-20T21:45:30.001Z,91.10
2019-04-20T21:47:54.585Z,91.10
2019-04-20T21:50:40.646Z,91.10
2019-04-20T21:52:58.705Z,91.20
2019-04-20T21:55:23.882Z,91.10
2019-04-20T21:57:55.448Z,91.10
2019-04-20T22:00:44.532Z,91.10
2019-04-20T22:03:13.373Z,91.20
2019-04-20T22:05:42.338Z,91.20
2019-04-20T22:08:14.047Z,91.20
2019-04-20T22:10:42.817Z,90.70
2019-04-20T22:13:11.960Z,90.60
